Address 0x062be4fbd3554b16850b7535dd82cc033684353a 7

Txn Hash Method
Block
From
To
Value [Txn Fee]
0x47dfbe9cc1abb035771ef2d51b99ea52e8c5a20c9a7a04b35d8b1037eea8c96dWithdraw160386612022-06-14 22:09:4122 days 14 hrs ago0x062be4fbd3554b16850b7535dd82cc033684353aOUT 0xdd4115bbbc2555d3d3053ff42ade45bebc2f2ddc0 AVAX0.00485765 35
0xd6ebd67800516dac4e0df45a29e85b7676329a9bfc556a7bc054ad32f53bcf30Swap Exact Token...147758632022-05-16 15:20:1251 days 21 hrs ago0x062be4fbd3554b16850b7535dd82cc033684353aOUT Trader Joe: Router0 AVAX0.002922844 26.5
0x2e62c1262c144100276bfd7a16f8cf2c5d55d6c1526f7eb95d15ba5442bb18b5Approve147758552022-05-16 15:19:5651 days 21 hrs ago0x062be4fbd3554b16850b7535dd82cc033684353aOUT 0xaa2439dbad718c9329a5893a51a708c015f763460 AVAX0.001232303 26.5
0xf5763d6ced4dab7a717b288d9e196827b392a9e5dae8eecf0dc3ba2a3c343a15Unstake147758412022-05-16 15:19:2651 days 21 hrs ago0x062be4fbd3554b16850b7535dd82cc033684353aOUT 0x50971d6b5a3ccd79c516f914208c67c8104977df0 AVAX0.008880892 26.5
0x976106ead628cf55f58e5ae556b4bfc4473c5831ca5db906d0d203bbaac7d5beApprove147758142022-05-16 15:18:3451 days 21 hrs ago0x062be4fbd3554b16850b7535dd82cc033684353aOUT 0xb28d86ed75e049ae3e2c98e656c376cd397a15380 AVAX0.0012287255 26.5
0xd35b1e257fa3e1e27f21403073f60f0b3569b8df10decdf26345f74a1aa74314Deposit147756682022-05-16 15:13:3751 days 21 hrs ago0x062be4fbd3554b16850b7535dd82cc033684353aOUT 0xdd4115bbbc2555d3d3053ff42ade45bebc2f2ddc0 AVAX0.006330585 26.5
0xeef7be7f1f97c08beec73a2d5a29a4bbab6af9def8058c020886807e35d7431aApprove147756492022-05-16 15:13:0151 days 21 hrs ago0x062be4fbd3554b16850b7535dd82cc033684353aOUT Magnet DAO Finance: MAG Token0 AVAX0.0012328595 26.5
0xeeeff9569877bfaa5176b23d519ef72476cabf29d63de9db89c1da2d8d92bddbUnstake147756332022-05-16 15:12:2651 days 21 hrs ago0x062be4fbd3554b16850b7535dd82cc033684353aOUT Magnet DAO: Staking0 AVAX0.002275749 27
0x50c8823edcdc679c187bdb8d76752cac91eab73a7b5bdcce842a8b7df8f512b9Approve147755962022-05-16 15:11:1151 days 21 hrs ago0x062be4fbd3554b16850b7535dd82cc033684353aOUT 0x1eda3ef892ab5521f4fcd5cee4825f57b48ed9610 AVAX0.001230183 26.5
0x352380dd9b9fb6d18be1e24e3590d83d61578c26de36475f00e3bcc6584eb699Transfer147699052022-05-16 12:02:5052 days 1 hr ago0x062be4fbd3554b16850b7535dd82cc033684353aOUT USD Coin0 AVAX0.001736704 26.5
0xb2f2086b1b6617dcfb7ac3f1d45870ddf3322a130d546e2d795e80c8fc3261b8Swap Exact Token...147698732022-05-16 12:01:4652 days 1 hr ago0x062be4fbd3554b16850b7535dd82cc033684353aOUT Trader Joe: Router0 AVAX0.0046584085 26.5
0x6e8aa1a5bff51488e73bb12b526734b7dd8b6c251b8ad1a40d542e0345964221Approve147698432022-05-16 12:00:4652 days 1 hr ago0x062be4fbd3554b16850b7535dd82cc033684353aOUT 0x63682bdc5f875e9bf69e201550658492c9763f890 AVAX0.0012351915 26.5
0xf0193e6ae7d1aa02989ed3dd1c240642445966e2880ed5be713f98b855f0e01fApprove147698002022-05-16 11:59:2052 days 1 hr ago0x062be4fbd3554b16850b7535dd82cc033684353aOUT 0x01c5e2a4af2bd9f62c7d55c6105b8a64e6905be50 AVAX0.001234158 26.5
0x0f3af079691a2a473f5381e80cc7a136e154b404b84f989abce771eb7dded7bbSwap Exact Token...147697562022-05-16 11:57:5052 days 1 hr ago0x062be4fbd3554b16850b7535dd82cc033684353aOUT Trader Joe: Router0 AVAX0.0051118765 26.5
0x7161a75501c4154545d44d56db6fd180631a3a79072f3d03fa2968a1534c3625Transfer147678582022-05-16 10:54:3352 days 2 hrs ago0xc73f513b97bca297a7403cd2ac88c77403bf07a5 IN 0x062be4fbd3554b16850b7535dd82cc033684353a0.05862987100372 AVAX0.0005565 26.5
0xe2dcfeda72e1626188297219989ac969a7cb8ab824fb5e0332832c7c7fff5f980x0081a21f140862852022-04-30 8:42:2768 days 4 hrs ago0x062be4fbd3554b16850b7535dd82cc033684353aOUT 0xdb01eca08e4ca5e7023ea207d7727dcb618ef1ee0 AVAX0.016801093744 33.352775434
0x5ab989a207bf3ffea660cce77834637ef08495c340421da751441eee37767d2bUnstake139973522022-04-28 5:51:0770 days 7 hrs ago0x062be4fbd3554b16850b7535dd82cc033684353aOUT 0x6323c227f71b30babdd6fe84093027079a9556620 AVAX0.004967289052 58.813022327
0x24c61d3aae890e06051cf1972392bfe3b0667a6883ce4e6ada70309111599f82Approve139973432022-04-28 5:50:4970 days 7 hrs ago0x062be4fbd3554b16850b7535dd82cc033684353aOUT 0x07394401c38b63d216be5a518e78414701b2cf0e0 AVAX0.002680768381 58.166298858
0x698315762a3ee4f058f8a13d83a2d70daac6b19e074de346d1726b921b51e425Deposit128870172022-04-02 5:54:0596 days 7 hrs ago0x062be4fbd3554b16850b7535dd82cc033684353aOUT 0xbd84472b31d947314fdfa2ea42460a2727f955af0 AVAX0.001745889901 27.518163785
0x0f7d47dad6ef2078c15efecc58c1ad2cd18177cfcfebd9959d5f360ae09c47fcDeposit128862562022-04-02 5:28:2896 days 7 hrs ago0x062be4fbd3554b16850b7535dd82cc033684353aOUT 0xbd84472b31d947314fdfa2ea42460a2727f955af0 AVAX0.002948829976 30.31156178
0xaef4cf09034e81378acf137815711607b5f277e7969955c88f33f858bde9529fApprove128862502022-04-02 5:28:1796 days 7 hrs ago0x062be4fbd3554b16850b7535dd82cc033684353aOUT Abracadabra.Money: Spell Token0 AVAX0.001425343102 30.579543514
0x0325f96ce2edac8baa2b6a95e6dfc530cfb032a7463c8ff2b83e10a858438c24Claim Spell122550262022-03-18 7:24:09111 days 5 hrs ago0x062be4fbd3554b16850b7535dd82cc033684353aOUT 0xf3d9ee59c59fb6405951cb69fa7c047920736cf20 AVAX0.00201999473 29.77981646
0xa9665c187159625748be33919c0f3acfda20546d42dfb14a71f94cc707838729Expecto Patronum121720472022-03-16 6:38:49113 days 6 hrs ago0x062be4fbd3554b16850b7535dd82cc033684353aOUT 0xf3d9ee59c59fb6405951cb69fa7c047920736cf20 AVAX0.005586571 26.5
0x1026447e60393d1e790da79ca6fe90e916b5210e8095fb8cf760e23375fa9f97Approve121720412022-03-16 6:38:38113 days 6 hrs ago0x062be4fbd3554b16850b7535dd82cc033684353aOUT Wonderland: wMEMO0 AVAX0.001230448 26.5
0x0e8fe2e4bf12c559912a544f2a6cdf2e256ef8b02062060ce39fe6e86c0ecbb20x79b9c399120495772022-03-13 8:39:25116 days 4 hrs ago0x062be4fbd3554b16850b7535dd82cc033684353aOUT 0xd641e62525e830e98cb9d7d033a538a1f092ff340 AVAX0.024915719838 31.43154119
[ Download CSV Export 
Latest 2 internal transactions
Parent Txn Hash Block From To Value
0x3c5be85b40e4dfc5ae0a0b5d6b40cdf5625b639783a8aa09402fcae69699428d86603542021-12-24 15:51:42194 days 21 hrs ago Trader Joe: Router0x062be4fbd3554b16850b7535dd82cc033684353a0.002276944676668012 AVAX
0x5b243a8581f133576a45a73b8012967dcda8a17db55c33d557e72fd8e97b965272222132021-11-21 4:14:28228 days 8 hrs ago Trader Joe: Router0x062be4fbd3554b16850b7535dd82cc033684353a0.484922404996488761 AVAX
[ Download CSV Export 
Loading

Contract Name:
0

Compiler Version
0

Optimization Enabled:
0

Other Settings:
-NA-
Block Transaction Gas Used Reward
Age Block Fee Address BC Fee Address Voting Power Jailed Incoming
Block Uncle Number Difficulty Gas Used Reward
Loading
Make sure to use the "Vote Down" button for any spammy posts, and the "Vote Up" for interesting conversations.